Laurel Hill, Florida
Current Conditions -  °F | °C
As of 8:58 PM on Friday 28 Nov 2014 (Local Time) from K0J4 Reporting Station
Clear Clear  
Wind Chill: 37°   Ceiling: Unl
Heat Index: 37°   Visibility: 10mi
Dew Point: 32°   Wind: 0mph
Humidity: 82%   Direction: NA
Pressure: 30.31"   Gusts: NA
Location:  30.97°N, 86.46°W
Report Text: K0J4 290258Z AUTO 00000KT 10SM CLR 03/00 A3031 RMK AO2 SLP266 T00280000 58002 $
Loading
Personal Weather Stations






























Interactive Weather Map New forecast layout! Learn more

10-Day Weather Forecast

Advertisements
Track Severe Weather on mobile